sensor_id;sensor_type;location;lat;lon;timestamp;P1;durP1;ratioP1;P2;durP2;ratioP2
68614;SDS011;55593;51.994;5.882;2023-06-22T00:00:19;10.38;;;6.10;;
68614;SDS011;55593;51.994;5.882;2023-06-22T00:02:48;7.10;;;4.80;;
68614;SDS011;55593;51.994;5.882;2023-06-22T00:05:17;7.53;;;4.60;;
68614;SDS011;55593;51.994;5.882;2023-06-22T00:07:47;9.48;;;5.60;;
68614;SDS011;55593;51.994;5.882;2023-06-22T00:10:18;9.25;;;5.68;;
68614;SDS011;55593;51.994;5.882;2023-06-22T00:12:47;7.00;;;5.40;;
68614;SDS011;55593;51.994;5.882;2023-06-22T00:15:17;9.98;;;6.10;;
68614;SDS011;55593;51.994;5.882;2023-06-22T00:17:46;7.57;;;5.13;;
68614;SDS011;55593;51.994;5.882;2023-06-22T00:20:15;8.73;;;5.65;;
68614;SDS011;55593;51.994;5.882;2023-06-22T00:22:45;9.07;;;5.75;;
68614;SDS011;55593;51.994;5.882;2023-06-22T00:25:16;6.50;;;4.35;;
68614;SDS011;55593;51.994;5.882;2023-06-22T00:27:45;7.28;;;5.07;;
68614;SDS011;55593;51.994;5.882;2023-06-22T00:30:15;9.85;;;6.18;;
68614;SDS011;55593;51.994;5.882;2023-06-22T00:32:44;8.35;;;5.90;;
68614;SDS011;55593;51.994;5.882;2023-06-22T00:35:14;7.03;;;5.22;;
68614;SDS011;55593;51.994;5.882;2023-06-22T00:37:43;8.82;;;5.32;;
68614;SDS011;55593;51.994;5.882;2023-06-22T00:40:16;9.00;;;6.15;;
68614;SDS011;55593;51.994;5.882;2023-06-22T00:42:47;9.38;;;5.97;;
68614;SDS011;55593;51.994;5.882;2023-06-22T00:45:16;9.38;;;5.82;;
68614;SDS011;55593;51.994;5.882;2023-06-22T00:47:46;9.77;;;5.93;;
68614;SDS011;55593;51.994;5.882;2023-06-22T00:50:16;7.10;;;5.75;;
68614;SDS011;55593;51.994;5.882;2023-06-22T00:52:48;7.15;;;5.10;;
68614;SDS011;55593;51.994;5.882;2023-06-22T00:55:21;7.85;;;5.28;;
68614;SDS011;55593;51.994;5.882;2023-06-22T00:57:51;9.38;;;5.18;;
68614;SDS011;55593;51.994;5.882;2023-06-22T01:00:22;12.10;;;5.53;;
68614;SDS011;55593;51.994;5.882;2023-06-22T01:02:53;9.10;;;5.88;;
68614;SDS011;55593;51.994;5.882;2023-06-22T01:05:22;11.32;;;5.03;;
68614;SDS011;55593;51.994;5.882;2023-06-22T01:07:59;25.05;;;4.90;;
68614;SDS011;55593;51.994;5.882;2023-06-22T01:10:38;7.65;;;5.07;;
68614;SDS011;55593;51.994;5.882;2023-06-22T01:13:15;7.55;;;5.05;;
68614;SDS011;55593;51.994;5.882;2023-06-22T01:15:49;8.40;;;5.28;;
68614;SDS011;55593;51.994;5.882;2023-06-22T01:18:20;8.18;;;5.13;;
68614;SDS011;55593;51.994;5.882;2023-06-22T01:20:51;8.98;;;5.32;;
68614;SDS011;55593;51.994;5.882;2023-06-22T01:23:26;7.30;;;5.07;;
68614;SDS011;55593;51.994;5.882;2023-06-22T01:26:02;14.68;;;5.60;;
68614;SDS011;55593;51.994;5.882;2023-06-22T01:28:40;7.78;;;4.85;;
68614;SDS011;55593;51.994;5.882;2023-06-22T01:31:11;7.43;;;5.10;;
68614;SDS011;55593;51.994;5.882;2023-06-22T01:33:43;6.72;;;5.28;;
68614;SDS011;55593;51.994;5.882;2023-06-22T01:36:14;10.15;;;6.00;;
68614;SDS011;55593;51.994;5.882;2023-06-22T01:38:46;9.18;;;5.68;;
68614;SDS011;55593;51.994;5.882;2023-06-22T01:41:18;9.30;;;5.88;;
68614;SDS011;55593;51.994;5.882;2023-06-22T01:43:50;10.55;;;6.20;;
68614;SDS011;55593;51.994;5.882;2023-06-22T01:46:20;9.38;;;6.85;;
68614;SDS011;55593;51.994;5.882;2023-06-22T01:48:50;10.50;;;7.18;;
68614;SDS011;55593;51.994;5.882;2023-06-22T01:51:19;10.65;;;6.70;;
68614;SDS011;55593;51.994;5.882;2023-06-22T01:53:48;9.63;;;7.38;;
68614;SDS011;55593;51.994;5.882;2023-06-22T01:56:18;9.10;;;6.18;;
68614;SDS011;55593;51.994;5.882;2023-06-22T01:58:52;12.57;;;7.20;;
68614;SDS011;55593;51.994;5.882;2023-06-22T02:01:27;10.85;;;6.85;;
68614;SDS011;55593;51.994;5.882;2023-06-22T02:04:02;9.53;;;6.90;;
68614;SDS011;55593;51.994;5.882;2023-06-22T02:06:34;11.48;;;8.05;;
68614;SDS011;55593;51.994;5.882;2023-06-22T02:09:07;14.45;;;7.25;;
68614;SDS011;55593;51.994;5.882;2023-06-22T02:11:37;9.48;;;6.70;;
68614;SDS011;55593;51.994;5.882;2023-06-22T02:14:12;12.25;;;7.75;;
68614;SDS011;55593;51.994;5.882;2023-06-22T02:16:41;9.15;;;7.20;;
68614;SDS011;55593;51.994;5.882;2023-06-22T02:19:10;8.75;;;6.43;;
68614;SDS011;55593;51.994;5.882;2023-06-22T02:21:44;9.43;;;6.43;;
68614;SDS011;55593;51.994;5.882;2023-06-22T02:24:13;8.80;;;6.38;;
68614;SDS011;55593;51.994;5.882;2023-06-22T02:26:42;11.00;;;7.25;;
68614;SDS011;55593;51.994;5.882;2023-06-22T02:29:14;9.23;;;6.65;;
68614;SDS011;55593;51.994;5.882;2023-06-22T02:31:44;11.90;;;7.45;;
68614;SDS011;55593;51.994;5.882;2023-06-22T02:34:13;10.23;;;7.30;;
68614;SDS011;55593;51.994;5.882;2023-06-22T02:36:44;10.73;;;6.80;;
68614;SDS011;55593;51.994;5.882;2023-06-22T02:39:18;10.32;;;6.97;;
68614;SDS011;55593;51.994;5.882;2023-06-22T02:41:49;9.32;;;7.13;;
68614;SDS011;55593;51.994;5.882;2023-06-22T02:44:21;9.13;;;6.93;;
68614;SDS011;55593;51.994;5.882;2023-06-22T02:46:50;11.25;;;7.90;;
68614;SDS011;55593;51.994;5.882;2023-06-22T02:49:20;13.32;;;8.52;;
68614;SDS011;55593;51.994;5.882;2023-06-22T02:51:50;10.13;;;7.10;;
68614;SDS011;55593;51.994;5.882;2023-06-22T02:54:20;9.35;;;7.88;;
68614;SDS011;55593;51.994;5.882;2023-06-22T02:56:52;9.18;;;6.53;;
68614;SDS011;55593;51.994;5.882;2023-06-22T02:59:25;11.48;;;7.82;;
68614;SDS011;55593;51.994;5.882;2023-06-22T03:02:00;11.25;;;7.93;;
68614;SDS011;55593;51.994;5.882;2023-06-22T03:04:31;13.25;;;7.90;;
68614;SDS011;55593;51.994;5.882;2023-06-22T03:07:01;11.48;;;8.05;;
68614;SDS011;55593;51.994;5.882;2023-06-22T03:09:31;10.88;;;7.60;;
68614;SDS011;55593;51.994;5.882;2023-06-22T03:12:01;13.18;;;9.25;;
68614;SDS011;55593;51.994;5.882;2023-06-22T03:14:42;12.30;;;7.97;;
68614;SDS011;55593;51.994;5.882;2023-06-22T03:17:11;11.80;;;9.45;;
68614;SDS011;55593;51.994;5.882;2023-06-22T03:19:40;13.50;;;9.35;;
68614;SDS011;55593;51.994;5.882;2023-06-22T03:22:09;16.55;;;9.98;;
68614;SDS011;55593;51.994;5.882;2023-06-22T03:24:40;15.65;;;10.95;;
68614;SDS011;55593;51.994;5.882;2023-06-22T03:27:10;15.85;;;10.88;;
68614;SDS011;55593;51.994;5.882;2023-06-22T03:29:42;11.50;;;8.88;;
68614;SDS011;55593;51.994;5.882;2023-06-22T03:32:12;14.43;;;11.43;;
68614;SDS011;55593;51.994;5.882;2023-06-22T03:34:41;13.77;;;9.95;;
68614;SDS011;55593;51.994;5.882;2023-06-22T03:37:13;16.73;;;12.23;;
68614;SDS011;55593;51.994;5.882;2023-06-22T03:39:43;16.83;;;10.88;;
68614;SDS011;55593;51.994;5.882;2023-06-22T03:42:13;13.50;;;10.93;;
68614;SDS011;55593;51.994;5.882;2023-06-22T03:44:45;15.52;;;11.27;;
68614;SDS011;55593;51.994;5.882;2023-06-22T03:47:14;20.02;;;12.95;;
68614;SDS011;55593;51.994;5.882;2023-06-22T03:49:43;12.82;;;11.10;;
68614;SDS011;55593;51.994;5.882;2023-06-22T03:52:12;15.73;;;12.57;;
68614;SDS011;55593;51.994;5.882;2023-06-22T03:54:42;18.13;;;13.95;;
68614;SDS011;55593;51.994;5.882;2023-06-22T03:57:11;18.15;;;12.70;;
68614;SDS011;55593;51.994;5.882;2023-06-22T03:59:40;18.88;;;13.43;;
68614;SDS011;55593;51.994;5.882;2023-06-22T04:02:11;18.65;;;13.60;;
68614;SDS011;55593;51.994;5.882;2023-06-22T04:04:40;19.10;;;14.85;;
68614;SDS011;55593;51.994;5.882;2023-06-22T04:07:10;19.05;;;15.18;;
68614;SDS011;55593;51.994;5.882;2023-06-22T04:09:39;17.30;;;14.30;;
68614;SDS011;55593;51.994;5.882;2023-06-22T04:12:08;21.13;;;14.75;;
68614;SDS011;55593;51.994;5.882;2023-06-22T04:14:37;19.30;;;16.77;;
68614;SDS011;55593;51.994;5.882;2023-06-22T04:17:06;19.25;;;15.90;;
68614;SDS011;55593;51.994;5.882;2023-06-22T04:19:38;26.48;;;17.80;;
68614;SDS011;55593;51.994;5.882;2023-06-22T04:22:07;19.83;;;16.45;;
68614;SDS011;55593;51.994;5.882;2023-06-22T04:24:37;20.85;;;17.10;;
68614;SDS011;55593;51.994;5.882;2023-06-22T04:27:06;22.75;;;17.90;;
68614;SDS011;55593;51.994;5.882;2023-06-22T04:29:35;20.02;;;17.73;;
68614;SDS011;55593;51.994;5.882;2023-06-22T04:32:09;22.67;;;18.92;;
68614;SDS011;55593;51.994;5.882;2023-06-22T04:34:41;26.50;;;18.55;;
68614;SDS011;55593;51.994;5.882;2023-06-22T04:37:10;23.83;;;19.00;;
68614;SDS011;55593;51.994;5.882;2023-06-22T04:39:41;21.88;;;16.83;;
68614;SDS011;55593;51.994;5.882;2023-06-22T04:42:11;25.33;;;20.95;;
68614;SDS011;55593;51.994;5.882;2023-06-22T04:44:40;26.48;;;20.00;;
68614;SDS011;55593;51.994;5.882;2023-06-22T04:47:10;26.60;;;19.95;;
68614;SDS011;55593;51.994;5.882;2023-06-22T04:49:41;22.08;;;17.90;;
68614;SDS011;55593;51.994;5.882;2023-06-22T04:52:11;25.15;;;20.90;;
68614;SDS011;55593;51.994;5.882;2023-06-22T04:54:46;24.05;;;20.05;;
68614;SDS011;55593;51.994;5.882;2023-06-22T04:57:21;24.85;;;18.27;;
68614;SDS011;55593;51.994;5.882;2023-06-22T04:59:58;24.35;;;19.27;;
68614;SDS011;55593;51.994;5.882;2023-06-22T05:02:37;28.83;;;21.15;;
68614;SDS011;55593;51.994;5.882;2023-06-22T05:05:09;25.27;;;20.40;;
68614;SDS011;55593;51.994;5.882;2023-06-22T05:07:39;24.55;;;19.77;;
68614;SDS011;55593;51.994;5.882;2023-06-22T05:10:11;26.67;;;22.38;;
68614;SDS011;55593;51.994;5.882;2023-06-22T05:12:41;26.17;;;20.95;;
68614;SDS011;55593;51.994;5.882;2023-06-22T05:15:10;22.95;;;19.60;;
68614;SDS011;55593;51.994;5.882;2023-06-22T05:17:39;24.60;;;20.17;;
68614;SDS011;55593;51.994;5.882;2023-06-22T05:20:11;25.20;;;19.70;;
68614;SDS011;55593;51.994;5.882;2023-06-22T05:22:43;24.23;;;19.77;;
68614;SDS011;55593;51.994;5.882;2023-06-22T05:25:13;24.17;;;20.50;;
68614;SDS011;55593;51.994;5.882;2023-06-22T05:27:42;24.20;;;19.30;;
68614;SDS011;55593;51.994;5.882;2023-06-22T05:30:12;26.45;;;19.48;;
68614;SDS011;55593;51.994;5.882;2023-06-22T05:32:42;25.63;;;20.27;;
68614;SDS011;55593;51.994;5.882;2023-06-22T05:35:13;24.38;;;20.55;;
68614;SDS011;55593;51.994;5.882;2023-06-22T05:37:43;23.73;;;20.35;;
68614;SDS011;55593;51.994;5.882;2023-06-22T05:40:12;25.05;;;17.63;;
68614;SDS011;55593;51.994;5.882;2023-06-22T05:42:41;21.13;;;18.17;;
68614;SDS011;55593;51.994;5.882;2023-06-22T05:45:10;22.13;;;17.85;;
68614;SDS011;55593;51.994;5.882;2023-06-22T05:47:39;23.13;;;19.05;;
68614;SDS011;55593;51.994;5.882;2023-06-22T05:50:09;23.35;;;18.55;;
68614;SDS011;55593;51.994;5.882;2023-06-22T05:52:40;20.30;;;17.73;;
68614;SDS011;55593;51.994;5.882;2023-06-22T05:55:09;21.05;;;17.20;;
68614;SDS011;55593;51.994;5.882;2023-06-22T05:57:39;21.60;;;18.25;;
68614;SDS011;55593;51.994;5.882;2023-06-22T06:00:08;21.63;;;17.20;;
68614;SDS011;55593;51.994;5.882;2023-06-22T06:02:39;22.63;;;18.88;;
68614;SDS011;55593;51.994;5.882;2023-06-22T06:05:10;20.58;;;17.27;;
68614;SDS011;55593;51.994;5.882;2023-06-22T06:07:43;21.65;;;17.52;;
68614;SDS011;55593;51.994;5.882;2023-06-22T06:10:12;20.15;;;17.95;;
68614;SDS011;55593;51.994;5.882;2023-06-22T06:12:41;21.45;;;17.27;;
68614;SDS011;55593;51.994;5.882;2023-06-22T06:15:10;21.80;;;17.50;;
68614;SDS011;55593;51.994;5.882;2023-06-22T06:17:46;22.25;;;17.40;;
68614;SDS011;55593;51.994;5.882;2023-06-22T06:20:15;20.27;;;16.58;;
68614;SDS011;55593;51.994;5.882;2023-06-22T06:22:49;20.85;;;16.52;;
68614;SDS011;55593;51.994;5.882;2023-06-22T06:25:18;22.52;;;17.20;;
68614;SDS011;55593;51.994;5.882;2023-06-22T06:27:48;19.25;;;16.45;;
68614;SDS011;55593;51.994;5.882;2023-06-22T06:30:20;18.77;;;15.93;;
68614;SDS011;55593;51.994;5.882;2023-06-22T06:32:50;23.17;;;15.85;;
68614;SDS011;55593;51.994;5.882;2023-06-22T06:35:19;19.13;;;15.25;;
68614;SDS011;55593;51.994;5.882;2023-06-22T06:37:51;17.73;;;15.35;;
68614;SDS011;55593;51.994;5.882;2023-06-22T06:40:20;18.52;;;14.02;;
68614;SDS011;55593;51.994;5.882;2023-06-22T06:42:49;20.88;;;15.57;;
68614;SDS011;55593;51.994;5.882;2023-06-22T06:45:19;19.25;;;14.73;;
68614;SDS011;55593;51.994;5.882;2023-06-22T06:47:48;19.13;;;14.57;;
68614;SDS011;55593;51.994;5.882;2023-06-22T06:50:18;16.35;;;14.20;;
68614;SDS011;55593;51.994;5.882;2023-06-22T06:52:48;18.95;;;13.95;;
68614;SDS011;55593;51.994;5.882;2023-06-22T06:55:19;15.98;;;13.25;;
68614;SDS011;55593;51.994;5.882;2023-06-22T06:57:51;16.00;;;12.40;;
68614;SDS011;55593;51.994;5.882;2023-06-22T07:00:20;15.05;;;12.70;;
68614;SDS011;55593;51.994;5.882;2023-06-22T07:02:50;15.82;;;12.68;;
68614;SDS011;55593;51.994;5.882;2023-06-22T07:05:19;14.18;;;10.50;;
68614;SDS011;55593;51.994;5.882;2023-06-22T07:07:51;14.40;;;11.02;;
68614;SDS011;55593;51.994;5.882;2023-06-22T07:10:20;15.32;;;10.95;;
68614;SDS011;55593;51.994;5.882;2023-06-22T07:12:49;13.43;;;10.98;;
68614;SDS011;55593;51.994;5.882;2023-06-22T07:15:18;14.20;;;10.32;;
68614;SDS011;55593;51.994;5.882;2023-06-22T07:17:48;12.38;;;10.20;;
68614;SDS011;55593;51.994;5.882;2023-06-22T07:20:17;14.90;;;10.70;;
68614;SDS011;55593;51.994;5.882;2023-06-22T07:22:46;13.65;;;10.60;;
68614;SDS011;55593;51.994;5.882;2023-06-22T07:25:18;15.15;;;10.32;;
68614;SDS011;55593;51.994;5.882;2023-06-22T07:27:56;13.18;;;9.93;;
68614;SDS011;55593;51.994;5.882;2023-06-22T07:30:27;12.90;;;10.30;;
68614;SDS011;55593;51.994;5.882;2023-06-22T07:32:56;13.02;;;10.20;;
68614;SDS011;55593;51.994;5.882;2023-06-22T07:35:30;14.27;;;10.00;;
68614;SDS011;55593;51.994;5.882;2023-06-22T07:37:59;13.65;;;9.35;;
68614;SDS011;55593;51.994;5.882;2023-06-22T07:40:32;12.68;;;10.20;;
68614;SDS011;55593;51.994;5.882;2023-06-22T07:43:01;14.32;;;10.55;;
68614;SDS011;55593;51.994;5.882;2023-06-22T07:45:30;12.27;;;10.02;;
68614;SDS011;55593;51.994;5.882;2023-06-22T07:48:00;14.18;;;11.05;;
68614;SDS011;55593;51.994;5.882;2023-06-22T07:50:29;16.67;;;12.02;;
68614;SDS011;55593;51.994;5.882;2023-06-22T07:52:58;16.05;;;11.75;;
68614;SDS011;55593;51.994;5.882;2023-06-22T07:55:27;12.45;;;10.07;;
68614;SDS011;55593;51.994;5.882;2023-06-22T07:57:59;14.68;;;10.18;;
68614;SDS011;55593;51.994;5.882;2023-06-22T08:00:28;12.30;;;10.10;;
68614;SDS011;55593;51.994;5.882;2023-06-22T08:02:59;12.70;;;9.45;;
68614;SDS011;55593;51.994;5.882;2023-06-22T08:05:29;12.25;;;9.32;;
68614;SDS011;55593;51.994;5.882;2023-06-22T08:07:58;10.55;;;8.43;;
68614;SDS011;55593;51.994;5.882;2023-06-22T08:10:27;14.38;;;8.38;;
68614;SDS011;55593;51.994;5.882;2023-06-22T08:12:59;17.02;;;8.27;;
68614;SDS011;55593;51.994;5.882;2023-06-22T08:15:28;11.18;;;8.70;;
68614;SDS011;55593;51.994;5.882;2023-06-22T08:17:57;12.40;;;7.93;;
68614;SDS011;55593;51.994;5.882;2023-06-22T08:20:26;13.38;;;8.88;;
68614;SDS011;55593;51.994;5.882;2023-06-22T08:22:56;12.63;;;7.57;;
68614;SDS011;55593;51.994;5.882;2023-06-22T08:25:31;10.60;;;8.05;;
68614;SDS011;55593;51.994;5.882;2023-06-22T08:28:03;11.10;;;8.60;;
68614;SDS011;55593;51.994;5.882;2023-06-22T08:30:33;11.73;;;9.07;;
68614;SDS011;55593;51.994;5.882;2023-06-22T08:33:02;9.95;;;8.10;;
68614;SDS011;55593;51.994;5.882;2023-06-22T08:35:31;14.27;;;7.07;;
68614;SDS011;55593;51.994;5.882;2023-06-22T08:38:00;9.23;;;7.38;;
68614;SDS011;55593;51.994;5.882;2023-06-22T08:40:29;11.18;;;7.95;;
68614;SDS011;55593;51.994;5.882;2023-06-22T08:42:59;11.63;;;8.32;;
68614;SDS011;55593;51.994;5.882;2023-06-22T08:45:30;11.23;;;7.65;;
68614;SDS011;55593;51.994;5.882;2023-06-22T08:47:59;9.63;;;7.30;;
68614;SDS011;55593;51.994;5.882;2023-06-22T08:50:29;12.18;;;7.25;;
68614;SDS011;55593;51.994;5.882;2023-06-22T08:52:58;11.43;;;8.02;;
68614;SDS011;55593;51.994;5.882;2023-06-22T08:55:27;8.73;;;6.93;;
68614;SDS011;55593;51.994;5.882;2023-06-22T08:57:56;11.52;;;7.95;;
68614;SDS011;55593;51.994;5.882;2023-06-22T09:00:25;9.27;;;6.93;;
68614;SDS011;55593;51.994;5.882;2023-06-22T09:03:01;8.48;;;6.65;;
68614;SDS011;55593;51.994;5.882;2023-06-22T09:05:30;9.27;;;6.47;;
68614;SDS011;55593;51.994;5.882;2023-06-22T09:07:59;8.50;;;6.22;;
68614;SDS011;55593;51.994;5.882;2023-06-22T09:10:28;9.88;;;6.60;;
68614;SDS011;55593;51.994;5.882;2023-06-22T09:12:57;11.40;;;6.95;;
68614;SDS011;55593;51.994;5.882;2023-06-22T09:15:26;8.30;;;6.22;;
68614;SDS011;55593;51.994;5.882;2023-06-22T09:17:56;10.73;;;6.38;;
68614;SDS011;55593;51.994;5.882;2023-06-22T09:20:27;9.40;;;7.10;;
68614;SDS011;55593;51.994;5.882;2023-06-22T09:22:57;7.68;;;5.53;;
68614;SDS011;55593;51.994;5.882;2023-06-22T09:25:26;8.85;;;5.28;;
68614;SDS011;55593;51.994;5.882;2023-06-22T09:27:55;13.25;;;6.30;;
68614;SDS011;55593;51.994;5.882;2023-06-22T09:30:25;8.43;;;5.40;;
68614;SDS011;55593;51.994;5.882;2023-06-22T09:32:54;8.15;;;5.55;;
68614;SDS011;55593;51.994;5.882;2023-06-22T09:35:23;10.35;;;5.20;;
68614;SDS011;55593;51.994;5.882;2023-06-22T09:37:55;9.75;;;5.88;;
68614;SDS011;55593;51.994;5.882;2023-06-22T09:40:24;8.82;;;5.13;;
68614;SDS011;55593;51.994;5.882;2023-06-22T09:42:53;6.95;;;4.90;;
68614;SDS011;55593;51.994;5.882;2023-06-22T09:45:22;8.30;;;4.93;;
68614;SDS011;55593;51.994;5.882;2023-06-22T09:47:51;7.53;;;4.35;;
68614;SDS011;55593;51.994;5.882;2023-06-22T09:50:20;16.63;;;5.38;;
68614;SDS011;55593;51.994;5.882;2023-06-22T09:52:49;8.98;;;4.57;;
68614;SDS011;55593;51.994;5.882;2023-06-22T09:55:23;7.63;;;4.20;;
68614;SDS011;55593;51.994;5.882;2023-06-22T09:57:52;7.53;;;4.90;;
68614;SDS011;55593;51.994;5.882;2023-06-22T10:00:21;6.97;;;4.43;;
68614;SDS011;55593;51.994;5.882;2023-06-22T10:02:52;11.30;;;6.65;;
68614;SDS011;55593;51.994;5.882;2023-06-22T10:05:21;6.78;;;5.40;;
68614;SDS011;55593;51.994;5.882;2023-06-22T10:07:50;8.75;;;5.70;;
68614;SDS011;55593;51.994;5.882;2023-06-22T10:10:20;10.45;;;5.60;;
68614;SDS011;55593;51.994;5.882;2023-06-22T10:12:54;8.85;;;5.57;;
68614;SDS011;55593;51.994;5.882;2023-06-22T10:15:24;9.85;;;5.28;;
68614;SDS011;55593;51.994;5.882;2023-06-22T10:17:53;8.45;;;5.00;;
68614;SDS011;55593;51.994;5.882;2023-06-22T10:20:23;8.25;;;5.45;;
68614;SDS011;55593;51.994;5.882;2023-06-22T10:22:52;7.07;;;4.57;;
68614;SDS011;55593;51.994;5.882;2023-06-22T10:25:24;7.40;;;4.65;;
68614;SDS011;55593;51.994;5.882;2023-06-22T10:27:53;7.55;;;4.95;;
68614;SDS011;55593;51.994;5.882;2023-06-22T10:30:22;7.30;;;4.85;;
68614;SDS011;55593;51.994;5.882;2023-06-22T10:32:51;7.90;;;4.88;;
68614;SDS011;55593;51.994;5.882;2023-06-22T10:35:20;7.88;;;5.25;;
68614;SDS011;55593;51.994;5.882;2023-06-22T10:37:49;7.68;;;4.85;;
68614;SDS011;55593;51.994;5.882;2023-06-22T10:40:20;8.70;;;5.07;;
68614;SDS011;55593;51.994;5.882;2023-06-22T10:42:52;7.28;;;4.50;;
68614;SDS011;55593;51.994;5.882;2023-06-22T10:45:21;13.45;;;4.93;;
68614;SDS011;55593;51.994;5.882;2023-06-22T10:47:50;7.82;;;4.60;;
68614;SDS011;55593;51.994;5.882;2023-06-22T10:50:19;6.30;;;4.45;;
68614;SDS011;55593;51.994;5.882;2023-06-22T10:52:49;8.50;;;5.30;;
68614;SDS011;55593;51.994;5.882;2023-06-22T10:55:18;7.55;;;5.32;;
68614;SDS011;55593;51.994;5.882;2023-06-22T10:57:48;7.50;;;5.35;;
68614;SDS011;55593;51.994;5.882;2023-06-22T11:00:20;10.18;;;6.00;;
68614;SDS011;55593;51.994;5.882;2023-06-22T11:02:49;6.63;;;5.15;;
68614;SDS011;55593;51.994;5.882;2023-06-22T11:05:18;8.02;;;5.78;;
68614;SDS011;55593;51.994;5.882;2023-06-22T11:07:48;13.02;;;6.28;;
68614;SDS011;55593;51.994;5.882;2023-06-22T11:10:17;9.20;;;5.25;;
68614;SDS011;55593;51.994;5.882;2023-06-22T11:12:46;9.38;;;4.80;;
68614;SDS011;55593;51.994;5.882;2023-06-22T11:15:15;7.78;;;5.15;;
68614;SDS011;55593;51.994;5.882;2023-06-22T11:17:47;9.10;;;6.28;;
68614;SDS011;55593;51.994;5.882;2023-06-22T11:20:16;9.27;;;6.97;;
68614;SDS011;55593;51.994;5.882;2023-06-22T11:22:45;8.85;;;6.60;;
68614;SDS011;55593;51.994;5.882;2023-06-22T11:25:14;8.80;;;5.55;;
68614;SDS011;55593;51.994;5.882;2023-06-22T11:27:43;8.32;;;6.72;;
68614;SDS011;55593;51.994;5.882;2023-06-22T11:30:13;8.73;;;6.10;;
68614;SDS011;55593;51.994;5.882;2023-06-22T11:32:42;9.40;;;6.95;;
68614;SDS011;55593;51.994;5.882;2023-06-22T11:35:14;7.72;;;5.85;;
68614;SDS011;55593;51.994;5.882;2023-06-22T11:37:43;9.10;;;5.82;;
68614;SDS011;55593;51.994;5.882;2023-06-22T11:40:12;9.77;;;6.45;;
68614;SDS011;55593;51.994;5.882;2023-06-22T11:42:43;10.30;;;6.53;;
68614;SDS011;55593;51.994;5.882;2023-06-22T11:45:12;9.10;;;7.18;;
68614;SDS011;55593;51.994;5.882;2023-06-22T11:47:43;9.05;;;7.18;;
68614;SDS011;55593;51.994;5.882;2023-06-22T11:50:15;8.43;;;6.80;;
68614;SDS011;55593;51.994;5.882;2023-06-22T11:52:44;8.60;;;6.97;;
68614;SDS011;55593;51.994;5.882;2023-06-22T11:55:13;9.25;;;7.43;;
68614;SDS011;55593;51.994;5.882;2023-06-22T11:57:54;12.60;;;7.72;;
68614;SDS011;55593;51.994;5.882;2023-06-22T12:00:27;11.60;;;7.88;;
68614;SDS011;55593;51.994;5.882;2023-06-22T12:02:57;9.43;;;7.93;;
68614;SDS011;55593;51.994;5.882;2023-06-22T12:05:28;16.52;;;10.85;;
68614;SDS011;55593;51.994;5.882;2023-06-22T12:07:57;13.18;;;9.70;;
68614;SDS011;55593;51.994;5.882;2023-06-22T12:10:27;11.20;;;8.93;;
68614;SDS011;55593;51.994;5.882;2023-06-22T12:12:57;10.35;;;8.30;;
68614;SDS011;55593;51.994;5.882;2023-06-22T12:15:26;9.98;;;8.52;;
68614;SDS011;55593;51.994;5.882;2023-06-22T12:17:55;13.15;;;9.48;;
68614;SDS011;55593;51.994;5.882;2023-06-22T12:20:24;12.23;;;9.23;;
68614;SDS011;55593;51.994;5.882;2023-06-22T12:22:57;16.13;;;10.27;;
68614;SDS011;55593;51.994;5.882;2023-06-22T12:25:26;14.95;;;11.52;;
68614;SDS011;55593;51.994;5.882;2023-06-22T12:27:55;16.38;;;12.25;;
68614;SDS011;55593;51.994;5.882;2023-06-22T12:30:24;15.60;;;11.27;;
68614;SDS011;55593;51.994;5.882;2023-06-22T12:32:54;23.10;;;14.57;;
68614;SDS011;55593;51.994;5.882;2023-06-22T12:35:23;18.67;;;14.35;;
68614;SDS011;55593;51.994;5.882;2023-06-22T12:37:52;20.75;;;15.98;;
68614;SDS011;55593;51.994;5.882;2023-06-22T12:40:24;20.65;;;15.48;;
68614;SDS011;55593;51.994;5.882;2023-06-22T12:42:53;22.15;;;15.88;;
68614;SDS011;55593;51.994;5.882;2023-06-22T12:45:22;21.85;;;14.10;;
68614;SDS011;55593;51.994;5.882;2023-06-22T12:47:54;18.52;;;16.50;;
68614;SDS011;55593;51.994;5.882;2023-06-22T12:50:23;23.35;;;17.50;;
68614;SDS011;55593;51.994;5.882;2023-06-22T12:52:52;24.50;;;16.50;;
68614;SDS011;55593;51.994;5.882;2023-06-22T12:55:24;16.42;;;14.57;;
68614;SDS011;55593;51.994;5.882;2023-06-22T12:57:53;19.25;;;15.52;;
68614;SDS011;55593;51.994;5.882;2023-06-22T13:00:22;20.95;;;16.67;;
68614;SDS011;55593;51.994;5.882;2023-06-22T13:02:51;22.52;;;19.65;;
68614;SDS011;55593;51.994;5.882;2023-06-22T13:05:21;22.45;;;20.08;;
68614;SDS011;55593;51.994;5.882;2023-06-22T13:07:50;28.38;;;19.08;;
68614;SDS011;55593;51.994;5.882;2023-06-22T13:10:19;20.02;;;17.35;;
68614;SDS011;55593;51.994;5.882;2023-06-22T13:12:51;26.38;;;20.40;;
68614;SDS011;55593;51.994;5.882;2023-06-22T13:15:26;22.55;;;19.85;;
68614;SDS011;55593;51.994;5.882;2023-06-22T13:17:55;25.45;;;21.98;;
68614;SDS011;55593;51.994;5.882;2023-06-22T13:20:25;23.80;;;20.75;;
68614;SDS011;55593;51.994;5.882;2023-06-22T13:22:54;27.08;;;21.60;;
68614;SDS011;55593;51.994;5.882;2023-06-22T13:25:23;25.50;;;22.08;;
68614;SDS011;55593;51.994;5.882;2023-06-22T13:27:55;24.75;;;20.52;;
68614;SDS011;55593;51.994;5.882;2023-06-22T13:30:24;25.73;;;20.13;;
68614;SDS011;55593;51.994;5.882;2023-06-22T13:32:53;20.90;;;18.30;;
68614;SDS011;55593;51.994;5.882;2023-06-22T13:35:22;23.48;;;19.60;;
68614;SDS011;55593;51.994;5.882;2023-06-22T13:37:51;27.73;;;23.02;;
68614;SDS011;55593;51.994;5.882;2023-06-22T13:40:20;29.60;;;24.90;;
68614;SDS011;55593;51.994;5.882;2023-06-22T13:42:49;30.30;;;25.60;;
68614;SDS011;55593;51.994;5.882;2023-06-22T13:45:21;26.95;;;23.42;;
68614;SDS011;55593;51.994;5.882;2023-06-22T13:47:50;23.48;;;21.00;;
68614;SDS011;55593;51.994;5.882;2023-06-22T13:50:20;23.35;;;19.95;;
68614;SDS011;55593;51.994;5.882;2023-06-22T13:52:49;33.03;;;23.30;;
68614;SDS011;55593;51.994;5.882;2023-06-22T13:55:18;27.40;;;22.75;;
68614;SDS011;55593;51.994;5.882;2023-06-22T13:57:47;27.45;;;24.55;;
68614;SDS011;55593;51.994;5.882;2023-06-22T14:00:17;25.33;;;22.23;;
68614;SDS011;55593;51.994;5.882;2023-06-22T14:02:49;29.38;;;23.45;;
68614;SDS011;55593;51.994;5.882;2023-06-22T14:05:18;28.65;;;25.58;;
68614;SDS011;55593;51.994;5.882;2023-06-22T14:07:47;30.65;;;25.77;;
68614;SDS011;55593;51.994;5.882;2023-06-22T14:10:17;26.63;;;23.58;;
68614;SDS011;55593;51.994;5.882;2023-06-22T14:12:46;32.72;;;25.85;;
68614;SDS011;55593;51.994;5.882;2023-06-22T14:15:15;30.33;;;23.92;;
68614;SDS011;55593;51.994;5.882;2023-06-22T14:17:44;31.27;;;24.95;;
68614;SDS011;55593;51.994;5.882;2023-06-22T14:20:16;29.65;;;25.70;;
68614;SDS011;55593;51.994;5.882;2023-06-22T14:22:45;24.38;;;21.80;;
68614;SDS011;55593;51.994;5.882;2023-06-22T14:25:14;28.88;;;22.92;;
68614;SDS011;55593;51.994;5.882;2023-06-22T14:27:43;26.20;;;22.63;;
68614;SDS011;55593;51.994;5.882;2023-06-22T14:30:13;25.92;;;23.08;;
68614;SDS011;55593;51.994;5.882;2023-06-22T14:32:43;22.63;;;20.20;;
68614;SDS011;55593;51.994;5.882;2023-06-22T14:35:12;26.45;;;23.85;;
68614;SDS011;55593;51.994;5.882;2023-06-22T14:37:44;27.95;;;24.95;;
68614;SDS011;55593;51.994;5.882;2023-06-22T14:40:13;28.63;;;25.50;;
68614;SDS011;55593;51.994;5.882;2023-06-22T14:42:42;29.08;;;22.88;;
68614;SDS011;55593;51.994;5.882;2023-06-22T14:45:14;29.52;;;24.00;;
68614;SDS011;55593;51.994;5.882;2023-06-22T14:47:43;38.42;;;28.63;;
68614;SDS011;55593;51.994;5.882;2023-06-22T14:50:12;33.88;;;26.35;;